Главная страница
METAR-TAF:

METAR-TAF

Аэропорты :

Харьков, Украина

широта: 49-58N, долгота: 036-08E, высота над уровнем моря: 154 м

Текущие метеонаблюдения

Эта сводка был подготовлена 44 минут назад, в 19:00 UTC
Штиль
Температура 3°C
Влажность 100%
Давление 1010 hPa
Видимость: 0300 м
небольшие ливневые дожди, туман

METAR: UKHH 191900Z 00000MPS 0300 R07/1700 -SHRA FG VV002 03/03 Q1010 R07/290059 NOSIG

Время: 21:44 (19:44 UTC)

Прогноз

Эта сводка был подготовлена 2 часа и 34 минут назад, в 17:10 UTC
Прогноз действительный с 19-го 18 UTC до 20-го 03 UTC
Ветер 6 Узел от южный
Видимость: 0300 м
Сплошная облачность на высоте 100 фута
небольшой дождь, туман
временами
С 19-го 18 UTC до 20-го 03 UTC
Видимость: 1200 м
Рассеянная облачность на высоте 300 фута
Рассеянная облачность на высоте 1500 фута, Кучево-дождевые.
ливневые дожди, дымка

TAF: UKHH 191710Z 1918/2003 17003MPS 0300 -RA FG OVC001 TEMPO 1918/2003 1200 SHRA BR BKN003 BKN015CB TX03/1918Z TN01/2003Z

Метеонаблюдения и прогнозы для более 4000 аэропортов (сводки METAR и TAF).

Имеющиеся станции представлены на карте желтыми и красными точками.

Чтобы увидеть название станции, наведите на нее мышь.

Затем щелкните, чтобы увидеть метеонаблюдения и метеопрогнозы.

Управление картой: чтобы увеличить масштаб, щелкните зеленые кнопки с черным крестиком; чтобы уменьшить масштаб, щелкните зеленую кнопку с тире; для просмотра соседних карт щелкайте зеленые стрелки.


METAR-TAF: